sensor_id;sensor_type;location;lat;lon;timestamp;P1;durP1;ratioP1;P2;durP2;ratioP2
70663;SDS011;58237;57.996;56.290;2022-09-01T00:02:16;20.10;;;9.68;;
70663;SDS011;58237;57.996;56.290;2022-09-01T00:04:42;21.63;;;9.73;;
70663;SDS011;58237;57.996;56.290;2022-09-01T00:07:08;20.17;;;11.68;;
70663;SDS011;58237;57.996;56.290;2022-09-01T00:09:33;23.05;;;10.50;;
70663;SDS011;58237;57.996;56.290;2022-09-01T00:11:59;20.52;;;9.90;;
70663;SDS011;58237;57.996;56.290;2022-09-01T00:14:26;20.20;;;9.27;;
70663;SDS011;58237;57.996;56.290;2022-09-01T00:16:52;18.90;;;9.60;;
70663;SDS011;58237;57.996;56.290;2022-09-01T00:19:17;20.40;;;9.27;;
70663;SDS011;58237;57.996;56.290;2022-09-01T00:21:43;15.68;;;8.55;;
70663;SDS011;58237;57.996;56.290;2022-09-01T00:24:10;19.02;;;9.15;;
70663;SDS011;58237;57.996;56.290;2022-09-01T00:26:37;16.83;;;9.07;;
70663;SDS011;58237;57.996;56.290;2022-09-01T00:29:02;20.58;;;10.98;;
70663;SDS011;58237;57.996;56.290;2022-09-01T00:31:28;18.88;;;10.25;;
70663;SDS011;58237;57.996;56.290;2022-09-01T00:33:53;18.92;;;9.27;;
70663;SDS011;58237;57.996;56.290;2022-09-01T00:36:19;19.30;;;9.55;;
70663;SDS011;58237;57.996;56.290;2022-09-01T00:38:45;17.98;;;9.18;;
70663;SDS011;58237;57.996;56.290;2022-09-01T00:41:11;18.92;;;8.82;;
70663;SDS011;58237;57.996;56.290;2022-09-01T00:43:43;18.05;;;9.05;;
70663;SDS011;58237;57.996;56.290;2022-09-01T00:46:11;18.25;;;9.23;;
70663;SDS011;58237;57.996;56.290;2022-09-01T00:48:37;19.20;;;8.73;;
70663;SDS011;58237;57.996;56.290;2022-09-01T00:51:03;16.38;;;8.45;;
70663;SDS011;58237;57.996;56.290;2022-09-01T00:53:28;18.42;;;9.48;;
70663;SDS011;58237;57.996;56.290;2022-09-01T00:55:54;18.33;;;8.85;;
70663;SDS011;58237;57.996;56.290;2022-09-01T00:58:19;19.15;;;9.60;;
70663;SDS011;58237;57.996;56.290;2022-09-01T01:00:45;18.65;;;9.68;;
70663;SDS011;58237;57.996;56.290;2022-09-01T01:03:11;16.95;;;8.82;;
70663;SDS011;58237;57.996;56.290;2022-09-01T01:05:39;17.20;;;8.70;;
70663;SDS011;58237;57.996;56.290;2022-09-01T01:08:05;16.73;;;9.05;;
70663;SDS011;58237;57.996;56.290;2022-09-01T01:10:31;16.33;;;7.88;;
70663;SDS011;58237;57.996;56.290;2022-09-01T01:12:58;16.15;;;7.95;;
70663;SDS011;58237;57.996;56.290;2022-09-01T01:15:24;15.18;;;8.00;;
70663;SDS011;58237;57.996;56.290;2022-09-01T01:17:49;19.30;;;8.40;;
70663;SDS011;58237;57.996;56.290;2022-09-01T01:20:14;16.77;;;8.88;;
70663;SDS011;58237;57.996;56.290;2022-09-01T01:22:47;17.38;;;8.18;;
70663;SDS011;58237;57.996;56.290;2022-09-01T01:25:15;20.10;;;8.95;;
70663;SDS011;58237;57.996;56.290;2022-09-01T01:27:40;18.60;;;9.23;;
70663;SDS011;58237;57.996;56.290;2022-09-01T01:30:06;17.30;;;9.55;;
70663;SDS011;58237;57.996;56.290;2022-09-01T01:32:31;15.07;;;8.30;;
70663;SDS011;58237;57.996;56.290;2022-09-01T01:34:57;15.73;;;8.05;;
70663;SDS011;58237;57.996;56.290;2022-09-01T01:37:22;15.95;;;8.50;;
70663;SDS011;58237;57.996;56.290;2022-09-01T01:39:47;16.02;;;8.63;;
70663;SDS011;58237;57.996;56.290;2022-09-01T01:42:13;16.95;;;8.88;;
70663;SDS011;58237;57.996;56.290;2022-09-01T01:44:38;17.23;;;9.38;;
70663;SDS011;58237;57.996;56.290;2022-09-01T01:47:04;17.80;;;9.25;;
70663;SDS011;58237;57.996;56.290;2022-09-01T01:49:30;17.20;;;8.63;;
70663;SDS011;58237;57.996;56.290;2022-09-01T01:51:56;14.30;;;7.85;;
70663;SDS011;58237;57.996;56.290;2022-09-01T01:54:21;17.60;;;8.85;;
70663;SDS011;58237;57.996;56.290;2022-09-01T01:56:47;17.55;;;8.85;;
70663;SDS011;58237;57.996;56.290;2022-09-01T01:59:12;15.75;;;8.27;;
70663;SDS011;58237;57.996;56.290;2022-09-01T02:01:38;16.80;;;8.48;;
70663;SDS011;58237;57.996;56.290;2022-09-01T02:04:03;21.38;;;10.20;;
70663;SDS011;58237;57.996;56.290;2022-09-01T02:06:31;21.77;;;9.93;;
70663;SDS011;58237;57.996;56.290;2022-09-01T02:08:56;19.75;;;9.55;;
70663;SDS011;58237;57.996;56.290;2022-09-01T02:11:22;17.23;;;8.50;;
70663;SDS011;58237;57.996;56.290;2022-09-01T02:13:47;17.63;;;8.70;;
70663;SDS011;58237;57.996;56.290;2022-09-01T02:16:13;16.10;;;8.38;;
70663;SDS011;58237;57.996;56.290;2022-09-01T02:18:40;18.98;;;9.82;;
70663;SDS011;58237;57.996;56.290;2022-09-01T02:21:07;21.23;;;9.77;;
70663;SDS011;58237;57.996;56.290;2022-09-01T02:23:33;18.40;;;9.00;;
70663;SDS011;58237;57.996;56.290;2022-09-01T02:25:58;18.25;;;9.63;;
70663;SDS011;58237;57.996;56.290;2022-09-01T02:28:23;16.45;;;8.57;;
70663;SDS011;58237;57.996;56.290;2022-09-01T02:30:50;17.13;;;8.60;;
70663;SDS011;58237;57.996;56.290;2022-09-01T02:33:16;17.73;;;9.25;;
70663;SDS011;58237;57.996;56.290;2022-09-01T02:35:42;17.13;;;9.32;;
70663;SDS011;58237;57.996;56.290;2022-09-01T02:38:07;16.70;;;8.60;;
70663;SDS011;58237;57.996;56.290;2022-09-01T02:40:33;17.92;;;9.35;;
70663;SDS011;58237;57.996;56.290;2022-09-01T02:42:59;19.05;;;10.70;;
70663;SDS011;58237;57.996;56.290;2022-09-01T02:45:25;21.90;;;11.25;;
70663;SDS011;58237;57.996;56.290;2022-09-01T02:47:51;19.10;;;10.57;;
70663;SDS011;58237;57.996;56.290;2022-09-01T02:50:17;17.38;;;9.38;;
70663;SDS011;58237;57.996;56.290;2022-09-01T02:52:42;16.58;;;8.63;;
70663;SDS011;58237;57.996;56.290;2022-09-01T02:55:08;18.63;;;9.88;;
70663;SDS011;58237;57.996;56.290;2022-09-01T02:57:33;18.38;;;9.25;;
70663;SDS011;58237;57.996;56.290;2022-09-01T02:59:59;16.40;;;8.95;;
70663;SDS011;58237;57.996;56.290;2022-09-01T03:02:25;15.48;;;8.55;;
70663;SDS011;58237;57.996;56.290;2022-09-01T03:04:50;15.93;;;8.50;;
70663;SDS011;58237;57.996;56.290;2022-09-01T03:07:15;21.85;;;9.10;;
70663;SDS011;58237;57.996;56.290;2022-09-01T03:09:41;16.65;;;8.88;;
70663;SDS011;58237;57.996;56.290;2022-09-01T03:12:06;18.65;;;8.98;;
70663;SDS011;58237;57.996;56.290;2022-09-01T03:14:31;16.40;;;9.00;;
70663;SDS011;58237;57.996;56.290;2022-09-01T03:16:57;16.13;;;8.93;;
70663;SDS011;58237;57.996;56.290;2022-09-01T03:19:22;15.23;;;8.40;;
70663;SDS011;58237;57.996;56.290;2022-09-01T03:21:47;16.38;;;8.35;;
70663;SDS011;58237;57.996;56.290;2022-09-01T03:24:14;17.60;;;8.80;;
70663;SDS011;58237;57.996;56.290;2022-09-01T03:26:40;14.75;;;7.60;;
70663;SDS011;58237;57.996;56.290;2022-09-01T03:29:06;14.38;;;7.70;;
70663;SDS011;58237;57.996;56.290;2022-09-01T03:31:31;14.18;;;7.97;;
70663;SDS011;58237;57.996;56.290;2022-09-01T03:33:57;18.08;;;8.57;;
70663;SDS011;58237;57.996;56.290;2022-09-01T03:36:23;18.15;;;9.77;;
70663;SDS011;58237;57.996;56.290;2022-09-01T03:38:48;15.20;;;8.73;;
70663;SDS011;58237;57.996;56.290;2022-09-01T03:41:15;16.33;;;9.27;;
70663;SDS011;58237;57.996;56.290;2022-09-01T03:43:40;14.40;;;8.18;;
70663;SDS011;58237;57.996;56.290;2022-09-01T03:46:06;15.80;;;8.90;;
70663;SDS011;58237;57.996;56.290;2022-09-01T03:48:31;18.23;;;9.55;;
70663;SDS011;58237;57.996;56.290;2022-09-01T03:50:59;16.27;;;8.63;;
70663;SDS011;58237;57.996;56.290;2022-09-01T03:53:24;15.43;;;9.65;;
70663;SDS011;58237;57.996;56.290;2022-09-01T03:55:50;16.35;;;8.85;;
70663;SDS011;58237;57.996;56.290;2022-09-01T03:58:17;17.13;;;9.50;;
70663;SDS011;58237;57.996;56.290;2022-09-01T04:00:42;16.90;;;9.05;;
70663;SDS011;58237;57.996;56.290;2022-09-01T04:03:09;17.42;;;9.60;;
70663;SDS011;58237;57.996;56.290;2022-09-01T04:05:35;17.00;;;9.05;;
70663;SDS011;58237;57.996;56.290;2022-09-01T04:08:02;15.90;;;8.75;;
70663;SDS011;58237;57.996;56.290;2022-09-01T04:10:29;18.75;;;9.80;;
70663;SDS011;58237;57.996;56.290;2022-09-01T04:12:54;15.93;;;8.43;;
70663;SDS011;58237;57.996;56.290;2022-09-01T04:15:19;14.23;;;8.27;;
70663;SDS011;58237;57.996;56.290;2022-09-01T04:17:45;15.27;;;8.93;;
70663;SDS011;58237;57.996;56.290;2022-09-01T04:20:10;15.95;;;8.73;;
70663;SDS011;58237;57.996;56.290;2022-09-01T04:22:36;16.52;;;8.95;;
70663;SDS011;58237;57.996;56.290;2022-09-01T04:25:01;18.85;;;9.65;;
70663;SDS011;58237;57.996;56.290;2022-09-01T04:27:28;16.77;;;8.95;;
70663;SDS011;58237;57.996;56.290;2022-09-01T04:29:54;14.48;;;7.80;;
70663;SDS011;58237;57.996;56.290;2022-09-01T04:32:19;18.23;;;9.98;;
70663;SDS011;58237;57.996;56.290;2022-09-01T04:34:44;16.30;;;9.60;;
70663;SDS011;58237;57.996;56.290;2022-09-01T04:37:17;17.75;;;9.52;;
70663;SDS011;58237;57.996;56.290;2022-09-01T04:39:47;16.45;;;8.85;;
70663;SDS011;58237;57.996;56.290;2022-09-01T04:42:12;17.85;;;9.10;;
70663;SDS011;58237;57.996;56.290;2022-09-01T04:44:38;16.30;;;9.35;;
70663;SDS011;58237;57.996;56.290;2022-09-01T04:47:03;19.33;;;10.07;;
70663;SDS011;58237;57.996;56.290;2022-09-01T04:49:29;15.20;;;9.15;;
70663;SDS011;58237;57.996;56.290;2022-09-01T04:51:54;17.33;;;9.68;;
70663;SDS011;58237;57.996;56.290;2022-09-01T04:54:20;17.60;;;9.23;;
70663;SDS011;58237;57.996;56.290;2022-09-01T04:56:47;16.52;;;8.90;;
70663;SDS011;58237;57.996;56.290;2022-09-01T04:59:13;16.67;;;9.45;;
70663;SDS011;58237;57.996;56.290;2022-09-01T05:01:38;14.98;;;8.40;;
70663;SDS011;58237;57.996;56.290;2022-09-01T05:04:04;14.45;;;8.38;;
70663;SDS011;58237;57.996;56.290;2022-09-01T05:06:30;15.32;;;8.73;;
70663;SDS011;58237;57.996;56.290;2022-09-01T05:08:55;13.88;;;7.78;;
70663;SDS011;58237;57.996;56.290;2022-09-01T05:11:21;15.60;;;8.90;;
70663;SDS011;58237;57.996;56.290;2022-09-01T05:13:47;15.75;;;8.95;;
70663;SDS011;58237;57.996;56.290;2022-09-01T05:16:14;16.77;;;9.20;;
70663;SDS011;58237;57.996;56.290;2022-09-01T05:18:41;16.33;;;9.15;;
70663;SDS011;58237;57.996;56.290;2022-09-01T05:21:07;16.45;;;10.15;;
70663;SDS011;58237;57.996;56.290;2022-09-01T05:23:33;18.77;;;10.45;;
70663;SDS011;58237;57.996;56.290;2022-09-01T05:25:58;15.95;;;9.20;;
70663;SDS011;58237;57.996;56.290;2022-09-01T05:28:23;16.75;;;9.18;;
70663;SDS011;58237;57.996;56.290;2022-09-01T05:30:49;16.92;;;9.45;;
70663;SDS011;58237;57.996;56.290;2022-09-01T05:33:14;17.05;;;9.25;;
70663;SDS011;58237;57.996;56.290;2022-09-01T05:35:40;16.75;;;9.50;;
70663;SDS011;58237;57.996;56.290;2022-09-01T05:38:06;15.23;;;8.88;;
70663;SDS011;58237;57.996;56.290;2022-09-01T05:40:31;17.42;;;9.05;;
70663;SDS011;58237;57.996;56.290;2022-09-01T05:42:56;15.63;;;8.85;;
70663;SDS011;58237;57.996;56.290;2022-09-01T05:45:22;17.73;;;9.25;;
70663;SDS011;58237;57.996;56.290;2022-09-01T05:47:47;18.52;;;9.85;;
70663;SDS011;58237;57.996;56.290;2022-09-01T05:50:12;17.35;;;11.00;;
70663;SDS011;58237;57.996;56.290;2022-09-01T05:52:38;14.15;;;8.55;;
70663;SDS011;58237;57.996;56.290;2022-09-01T05:55:04;16.25;;;9.00;;
70663;SDS011;58237;57.996;56.290;2022-09-01T05:57:29;17.15;;;8.10;;
70663;SDS011;58237;57.996;56.290;2022-09-01T05:59:55;15.07;;;8.65;;
70663;SDS011;58237;57.996;56.290;2022-09-01T06:02:21;16.88;;;9.38;;
70663;SDS011;58237;57.996;56.290;2022-09-01T06:04:46;14.80;;;8.68;;
70663;SDS011;58237;57.996;56.290;2022-09-01T06:07:12;14.43;;;8.10;;
70663;SDS011;58237;57.996;56.290;2022-09-01T06:09:39;16.20;;;9.48;;
70663;SDS011;58237;57.996;56.290;2022-09-01T06:12:05;17.27;;;9.60;;
70663;SDS011;58237;57.996;56.290;2022-09-01T06:14:31;16.58;;;9.63;;
70663;SDS011;58237;57.996;56.290;2022-09-01T06:16:56;17.27;;;9.05;;
70663;SDS011;58237;57.996;56.290;2022-09-01T06:19:21;15.57;;;9.18;;
70663;SDS011;58237;57.996;56.290;2022-09-01T06:21:47;15.10;;;8.70;;
70663;SDS011;58237;57.996;56.290;2022-09-01T06:24:12;16.17;;;9.02;;
70663;SDS011;58237;57.996;56.290;2022-09-01T06:26:37;15.70;;;8.88;;
70663;SDS011;58237;57.996;56.290;2022-09-01T06:29:04;18.95;;;10.55;;
70663;SDS011;58237;57.996;56.290;2022-09-01T06:31:31;18.25;;;10.48;;
70663;SDS011;58237;57.996;56.290;2022-09-01T06:33:57;16.65;;;9.82;;
70663;SDS011;58237;57.996;56.290;2022-09-01T06:36:22;16.35;;;10.15;;
70663;SDS011;58237;57.996;56.290;2022-09-01T06:38:49;17.00;;;9.75;;
70663;SDS011;58237;57.996;56.290;2022-09-01T06:41:14;18.23;;;9.30;;
70663;SDS011;58237;57.996;56.290;2022-09-01T06:43:39;15.93;;;9.18;;
70663;SDS011;58237;57.996;56.290;2022-09-01T06:46:05;18.48;;;9.35;;
70663;SDS011;58237;57.996;56.290;2022-09-01T06:48:30;18.50;;;9.45;;
70663;SDS011;58237;57.996;56.290;2022-09-01T06:51:00;15.95;;;8.73;;
70663;SDS011;58237;57.996;56.290;2022-09-01T06:53:25;16.27;;;8.43;;
70663;SDS011;58237;57.996;56.290;2022-09-01T06:55:50;16.30;;;9.70;;
70663;SDS011;58237;57.996;56.290;2022-09-01T06:58:16;14.80;;;8.43;;
70663;SDS011;58237;57.996;56.290;2022-09-01T07:00:41;13.80;;;8.43;;
70663;SDS011;58237;57.996;56.290;2022-09-01T07:03:10;15.10;;;9.43;;
70663;SDS011;58237;57.996;56.290;2022-09-01T07:05:38;15.05;;;9.07;;
70663;SDS011;58237;57.996;56.290;2022-09-01T07:08:04;16.20;;;10.15;;
70663;SDS011;58237;57.996;56.290;2022-09-01T07:10:29;17.67;;;10.25;;
70663;SDS011;58237;57.996;56.290;2022-09-01T07:12:56;14.48;;;8.25;;
70663;SDS011;58237;57.996;56.290;2022-09-01T07:15:21;14.73;;;9.23;;
70663;SDS011;58237;57.996;56.290;2022-09-01T07:17:54;14.55;;;9.10;;
70663;SDS011;58237;57.996;56.290;2022-09-01T07:20:20;16.05;;;9.43;;
70663;SDS011;58237;57.996;56.290;2022-09-01T07:22:46;17.35;;;9.07;;
70663;SDS011;58237;57.996;56.290;2022-09-01T07:25:11;20.08;;;11.35;;
70663;SDS011;58237;57.996;56.290;2022-09-01T07:27:40;16.35;;;9.90;;
70663;SDS011;58237;57.996;56.290;2022-09-01T07:30:06;15.13;;;9.70;;
70663;SDS011;58237;57.996;56.290;2022-09-01T07:32:32;15.35;;;9.85;;
70663;SDS011;58237;57.996;56.290;2022-09-01T07:34:57;16.27;;;10.05;;
70663;SDS011;58237;57.996;56.290;2022-09-01T07:37:22;14.27;;;9.18;;
70663;SDS011;58237;57.996;56.290;2022-09-01T07:39:48;15.80;;;9.77;;
70663;SDS011;58237;57.996;56.290;2022-09-01T07:42:15;14.93;;;9.45;;
70663;SDS011;58237;57.996;56.290;2022-09-01T07:44:40;16.38;;;9.35;;
70663;SDS011;58237;57.996;56.290;2022-09-01T07:47:05;15.85;;;9.32;;
70663;SDS011;58237;57.996;56.290;2022-09-01T07:49:31;18.17;;;10.13;;
70663;SDS011;58237;57.996;56.290;2022-09-01T07:51:56;14.60;;;10.75;;
70663;SDS011;58237;57.996;56.290;2022-09-01T07:54:21;17.50;;;10.10;;
70663;SDS011;58237;57.996;56.290;2022-09-01T07:56:47;17.13;;;10.25;;
70663;SDS011;58237;57.996;56.290;2022-09-01T07:59:12;18.05;;;10.65;;
70663;SDS011;58237;57.996;56.290;2022-09-01T08:01:37;16.02;;;9.90;;
70663;SDS011;58237;57.996;56.290;2022-09-01T08:04:03;18.00;;;10.20;;
70663;SDS011;58237;57.996;56.290;2022-09-01T08:06:28;15.40;;;9.52;;
70663;SDS011;58237;57.996;56.290;2022-09-01T08:08:54;17.27;;;9.73;;
70663;SDS011;58237;57.996;56.290;2022-09-01T08:11:21;16.50;;;10.25;;
70663;SDS011;58237;57.996;56.290;2022-09-01T08:13:48;18.05;;;10.02;;
70663;SDS011;58237;57.996;56.290;2022-09-01T08:16:13;18.05;;;10.38;;
70663;SDS011;58237;57.996;56.290;2022-09-01T08:18:40;16.42;;;11.10;;
70663;SDS011;58237;57.996;56.290;2022-09-01T08:21:06;17.15;;;10.05;;
70663;SDS011;58237;57.996;56.290;2022-09-01T08:23:31;18.65;;;10.27;;
70663;SDS011;58237;57.996;56.290;2022-09-01T08:25:57;18.25;;;10.45;;
70663;SDS011;58237;57.996;56.290;2022-09-01T08:28:22;16.75;;;10.90;;
70663;SDS011;58237;57.996;56.290;2022-09-01T08:30:47;15.55;;;10.52;;
70663;SDS011;58237;57.996;56.290;2022-09-01T08:33:13;17.10;;;10.63;;
70663;SDS011;58237;57.996;56.290;2022-09-01T08:35:42;15.82;;;10.40;;
70663;SDS011;58237;57.996;56.290;2022-09-01T08:38:08;19.48;;;11.55;;
70663;SDS011;58237;57.996;56.290;2022-09-01T08:40:33;18.30;;;10.43;;
70663;SDS011;58237;57.996;56.290;2022-09-01T08:45:41;15.55;;;9.32;;
70663;SDS011;58237;57.996;56.290;2022-09-01T08:48:13;15.35;;;9.38;;
70663;SDS011;58237;57.996;56.290;2022-09-01T08:50:39;17.15;;;11.15;;
70663;SDS011;58237;57.996;56.290;2022-09-01T08:53:08;17.80;;;11.25;;
70663;SDS011;58237;57.996;56.290;2022-09-01T08:55:43;15.95;;;10.20;;
70663;SDS011;58237;57.996;56.290;2022-09-01T08:58:09;18.08;;;9.93;;
70663;SDS011;58237;57.996;56.290;2022-09-01T09:00:40;19.10;;;10.43;;
70663;SDS011;58237;57.996;56.290;2022-09-01T09:10:41;16.58;;;10.52;;
70663;SDS011;58237;57.996;56.290;2022-09-01T09:15:43;19.52;;;12.07;;
70663;SDS011;58237;57.996;56.290;2022-09-01T09:18:15;19.23;;;12.48;;
70663;SDS011;58237;57.996;56.290;2022-09-01T09:20:41;19.65;;;10.32;;
70663;SDS011;58237;57.996;56.290;2022-09-01T09:23:12;18.55;;;9.90;;
70663;SDS011;58237;57.996;56.290;2022-09-01T09:25:39;15.98;;;10.27;;
70663;SDS011;58237;57.996;56.290;2022-09-01T09:28:05;18.23;;;10.18;;
70663;SDS011;58237;57.996;56.290;2022-09-01T09:30:30;16.08;;;10.48;;
70663;SDS011;58237;57.996;56.290;2022-09-01T09:35:26;19.65;;;11.48;;
70663;SDS011;58237;57.996;56.290;2022-09-01T09:37:51;19.83;;;11.80;;
70663;SDS011;58237;57.996;56.290;2022-09-01T09:40:21;20.67;;;12.75;;
70663;SDS011;58237;57.996;56.290;2022-09-01T09:45:22;22.75;;;12.35;;
70663;SDS011;58237;57.996;56.290;2022-09-01T09:47:48;20.38;;;13.23;;
70663;SDS011;58237;57.996;56.290;2022-09-01T09:50:21;19.55;;;12.13;;
70663;SDS011;58237;57.996;56.290;2022-09-01T09:52:47;19.75;;;12.93;;
70663;SDS011;58237;57.996;56.290;2022-09-01T09:55:20;25.10;;;15.00;;
70663;SDS011;58237;57.996;56.290;2022-09-01T10:00:22;20.73;;;11.75;;
70663;SDS011;58237;57.996;56.290;2022-09-01T10:02:51;19.83;;;11.25;;
70663;SDS011;58237;57.996;56.290;2022-09-01T10:08:01;18.63;;;12.00;;
70663;SDS011;58237;57.996;56.290;2022-09-01T10:12:52;19.17;;;11.85;;
70663;SDS011;58237;57.996;56.290;2022-09-01T10:15:18;20.05;;;12.68;;
70663;SDS011;58237;57.996;56.290;2022-09-01T10:17:44;17.60;;;11.90;;
70663;SDS011;58237;57.996;56.290;2022-09-01T10:20:12;23.73;;;13.60;;
70663;SDS011;58237;57.996;56.290;2022-09-01T10:22:38;19.77;;;12.35;;
70663;SDS011;58237;57.996;56.290;2022-09-01T10:25:04;18.98;;;11.75;;
70663;SDS011;58237;57.996;56.290;2022-09-01T10:27:40;20.55;;;12.60;;
70663;SDS011;58237;57.996;56.290;2022-09-01T10:30:07;20.27;;;11.57;;
70663;SDS011;58237;57.996;56.290;2022-09-01T10:32:37;21.73;;;12.30;;
70663;SDS011;58237;57.996;56.290;2022-09-01T10:35:03;19.52;;;12.90;;
70663;SDS011;58237;57.996;56.290;2022-09-01T10:37:29;19.70;;;12.13;;
70663;SDS011;58237;57.996;56.290;2022-09-01T10:40:14;17.33;;;11.10;;
70663;SDS011;58237;57.996;56.290;2022-09-01T10:42:41;18.13;;;10.85;;
70663;SDS011;58237;57.996;56.290;2022-09-01T10:45:28;21.77;;;12.38;;
70663;SDS011;58237;57.996;56.290;2022-09-01T10:47:54;19.73;;;12.45;;
70663;SDS011;58237;57.996;56.290;2022-09-01T10:50:28;20.10;;;11.73;;
70663;SDS011;58237;57.996;56.290;2022-09-01T10:53:04;21.60;;;10.88;;
70663;SDS011;58237;57.996;56.290;2022-09-01T10:55:31;18.27;;;11.05;;
70663;SDS011;58237;57.996;56.290;2022-09-01T10:58:58;22.85;;;11.82;;
70663;SDS011;58237;57.996;56.290;2022-09-01T11:00:52;18.85;;;11.60;;
70663;SDS011;58237;57.996;56.290;2022-09-01T11:08:22;20.17;;;11.20;;
70663;SDS011;58237;57.996;56.290;2022-09-01T11:10:55;21.55;;;12.98;;
70663;SDS011;58237;57.996;56.290;2022-09-01T11:18:46;19.25;;;10.77;;
70663;SDS011;58237;57.996;56.290;2022-09-01T11:21:25;17.45;;;11.23;;
70663;SDS011;58237;57.996;56.290;2022-09-01T11:23:50;18.77;;;10.68;;
70663;SDS011;58237;57.996;56.290;2022-09-01T11:26:43;16.17;;;10.27;;
70663;SDS011;58237;57.996;56.290;2022-09-01T11:29:45;19.40;;;11.75;;
70663;SDS011;58237;57.996;56.290;2022-09-01T11:31:54;19.02;;;11.18;;
70663;SDS011;58237;57.996;56.290;2022-09-01T11:34:20;18.10;;;11.23;;
70663;SDS011;58237;57.996;56.290;2022-09-01T11:36:49;18.45;;;10.20;;
70663;SDS011;58237;57.996;56.290;2022-09-01T11:44:14;18.88;;;10.70;;
70663;SDS011;58237;57.996;56.290;2022-09-01T11:46:41;20.65;;;12.98;;
70663;SDS011;58237;57.996;56.290;2022-09-01T11:49:07;25.52;;;14.55;;
70663;SDS011;58237;57.996;56.290;2022-09-01T11:51:38;23.42;;;12.52;;
70663;SDS011;58237;57.996;56.290;2022-09-01T11:54:06;20.20;;;11.98;;
70663;SDS011;58237;57.996;56.290;2022-09-01T11:56:31;21.00;;;11.68;;
70663;SDS011;58237;57.996;56.290;2022-09-01T11:58:57;25.38;;;13.82;;
70663;SDS011;58237;57.996;56.290;2022-09-01T12:01:29;23.65;;;13.93;;
70663;SDS011;58237;57.996;56.290;2022-09-01T12:03:55;19.58;;;13.38;;
70663;SDS011;58237;57.996;56.290;2022-09-01T12:06:24;21.95;;;12.45;;
70663;SDS011;58237;57.996;56.290;2022-09-01T12:08:51;19.23;;;12.27;;
70663;SDS011;58237;57.996;56.290;2022-09-01T12:11:18;17.55;;;11.00;;
70663;SDS011;58237;57.996;56.290;2022-09-01T12:13:54;19.58;;;11.57;;
70663;SDS011;58237;57.996;56.290;2022-09-01T12:16:20;18.95;;;11.25;;
70663;SDS011;58237;57.996;56.290;2022-09-01T12:18:49;18.13;;;11.07;;
70663;SDS011;58237;57.996;56.290;2022-09-01T12:23:46;18.50;;;11.02;;
70663;SDS011;58237;57.996;56.290;2022-09-01T12:26:14;16.40;;;10.75;;
70663;SDS011;58237;57.996;56.290;2022-09-01T12:28:40;18.13;;;11.00;;
70663;SDS011;58237;57.996;56.290;2022-09-01T12:31:07;18.45;;;11.07;;
70663;SDS011;58237;57.996;56.290;2022-09-01T12:33:36;16.95;;;10.70;;
70663;SDS011;58237;57.996;56.290;2022-09-01T12:38:45;24.77;;;13.10;;
70663;SDS011;58237;57.996;56.290;2022-09-01T12:43:54;25.67;;;14.60;;
70663;SDS011;58237;57.996;56.290;2022-09-01T12:46:39;24.65;;;14.88;;
70663;SDS011;58237;57.996;56.290;2022-09-01T12:49:17;27.27;;;14.95;;
70663;SDS011;58237;57.996;56.290;2022-09-01T12:51:43;25.55;;;14.43;;
70663;SDS011;58237;57.996;56.290;2022-09-01T12:54:08;22.45;;;14.55;;
70663;SDS011;58237;57.996;56.290;2022-09-01T12:56:36;24.40;;;14.57;;
70663;SDS011;58237;57.996;56.290;2022-09-01T12:59:09;21.52;;;14.10;;
70663;SDS011;58237;57.996;56.290;2022-09-01T13:01:35;26.23;;;17.38;;
70663;SDS011;58237;57.996;56.290;2022-09-01T13:04:11;27.48;;;16.88;;
70663;SDS011;58237;57.996;56.290;2022-09-01T13:06:37;30.58;;;17.40;;
70663;SDS011;58237;57.996;56.290;2022-09-01T13:09:03;30.05;;;16.52;;
70663;SDS011;58237;57.996;56.290;2022-09-01T13:11:28;24.80;;;16.30;;
70663;SDS011;58237;57.996;56.290;2022-09-01T13:13:54;25.95;;;16.65;;
70663;SDS011;58237;57.996;56.290;2022-09-01T13:16:19;24.13;;;15.20;;
70663;SDS011;58237;57.996;56.290;2022-09-01T13:18:45;26.23;;;15.35;;
70663;SDS011;58237;57.996;56.290;2022-09-01T13:21:11;24.85;;;15.00;;
70663;SDS011;58237;57.996;56.290;2022-09-01T13:23:36;29.45;;;14.35;;
70663;SDS011;58237;57.996;56.290;2022-09-01T13:26:02;23.20;;;15.10;;
70663;SDS011;58237;57.996;56.290;2022-09-01T13:28:27;24.10;;;15.27;;
70663;SDS011;58237;57.996;56.290;2022-09-01T13:31:00;30.42;;;15.93;;
70663;SDS011;58237;57.996;56.290;2022-09-01T13:35:51;23.08;;;13.80;;
70663;SDS011;58237;57.996;56.290;2022-09-01T13:38:17;29.30;;;17.67;;
70663;SDS011;58237;57.996;56.290;2022-09-01T13:40:43;36.83;;;19.70;;
70663;SDS011;58237;57.996;56.290;2022-09-01T13:43:08;28.40;;;16.00;;
70663;SDS011;58237;57.996;56.290;2022-09-01T13:45:34;31.10;;;18.50;;
70663;SDS011;58237;57.996;56.290;2022-09-01T13:47:59;34.65;;;18.92;;
70663;SDS011;58237;57.996;56.290;2022-09-01T13:50:25;41.05;;;21.88;;
70663;SDS011;58237;57.996;56.290;2022-09-01T13:52:51;32.63;;;17.73;;
70663;SDS011;58237;57.996;56.290;2022-09-01T13:55:22;38.75;;;20.33;;
70663;SDS011;58237;57.996;56.290;2022-09-01T13:57:47;30.98;;;18.08;;
70663;SDS011;58237;57.996;56.290;2022-09-01T14:00:13;30.63;;;16.65;;
70663;SDS011;58237;57.996;56.290;2022-09-01T14:02:40;30.38;;;17.48;;
70663;SDS011;58237;57.996;56.290;2022-09-01T14:05:05;36.17;;;20.38;;
70663;SDS011;58237;57.996;56.290;2022-09-01T14:07:31;29.42;;;16.35;;
70663;SDS011;58237;57.996;56.290;2022-09-01T14:09:56;26.83;;;16.77;;
70663;SDS011;58237;57.996;56.290;2022-09-01T14:12:21;31.90;;;18.05;;
70663;SDS011;58237;57.996;56.290;2022-09-01T14:14:47;25.20;;;16.48;;
70663;SDS011;58237;57.996;56.290;2022-09-01T14:17:12;33.92;;;19.23;;
70663;SDS011;58237;57.996;56.290;2022-09-01T14:19:37;32.17;;;18.00;;
70663;SDS011;58237;57.996;56.290;2022-09-01T14:22:03;30.38;;;17.95;;
70663;SDS011;58237;57.996;56.290;2022-09-01T14:24:28;33.83;;;20.50;;
70663;SDS011;58237;57.996;56.290;2022-09-01T14:26:53;30.15;;;19.15;;
70663;SDS011;58237;57.996;56.290;2022-09-01T14:29:19;31.25;;;19.92;;
70663;SDS011;58237;57.996;56.290;2022-09-01T14:31:44;28.33;;;17.73;;
70663;SDS011;58237;57.996;56.290;2022-09-01T14:34:09;35.92;;;21.98;;
70663;SDS011;58237;57.996;56.290;2022-09-01T14:36:35;39.55;;;24.08;;
70663;SDS011;58237;57.996;56.290;2022-09-01T14:39:00;35.40;;;22.23;;
70663;SDS011;58237;57.996;56.290;2022-09-01T14:41:25;33.92;;;21.05;;
70663;SDS011;58237;57.996;56.290;2022-09-01T14:43:51;34.58;;;22.58;;
70663;SDS011;58237;57.996;56.290;2022-09-01T14:46:16;34.30;;;21.15;;
70663;SDS011;58237;57.996;56.290;2022-09-01T14:48:42;34.78;;;21.42;;
70663;SDS011;58237;57.996;56.290;2022-09-01T14:51:07;32.28;;;20.80;;
70663;SDS011;58237;57.996;56.290;2022-09-01T14:53:33;33.35;;;20.55;;
70663;SDS011;58237;57.996;56.290;2022-09-01T14:55:59;31.08;;;19.70;;
70663;SDS011;58237;57.996;56.290;2022-09-01T14:58:25;30.45;;;20.13;;
70663;SDS011;58237;57.996;56.290;2022-09-01T15:00:54;31.50;;;18.95;;
70663;SDS011;58237;57.996;56.290;2022-09-01T15:03:20;30.38;;;19.20;;
70663;SDS011;58237;57.996;56.290;2022-09-01T15:05:45;31.63;;;19.17;;